sensor_id;sensor_type;location;lat;lon;timestamp;P1;durP1;ratioP1;P2;durP2;ratioP2
27670;SDS011;15077;49.704;9.908;2023-07-16T00:01:47;2.35;;;1.77;;
27670;SDS011;15077;49.704;9.908;2023-07-16T00:04:13;2.47;;;1.50;;
27670;SDS011;15077;49.704;9.908;2023-07-16T00:06:39;3.25;;;1.88;;
27670;SDS011;15077;49.704;9.908;2023-07-16T00:09:05;4.32;;;2.20;;
27670;SDS011;15077;49.704;9.908;2023-07-16T00:11:31;3.42;;;2.50;;
27670;SDS011;15077;49.704;9.908;2023-07-16T00:13:56;5.05;;;2.60;;
27670;SDS011;15077;49.704;9.908;2023-07-16T00:16:22;4.22;;;2.72;;
27670;SDS011;15077;49.704;9.908;2023-07-16T00:18:48;4.80;;;2.63;;
27670;SDS011;15077;49.704;9.908;2023-07-16T00:21:17;4.68;;;2.88;;
27670;SDS011;15077;49.704;9.908;2023-07-16T00:23:42;4.50;;;2.40;;
27670;SDS011;15077;49.704;9.908;2023-07-16T00:26:09;3.35;;;2.15;;
27670;SDS011;15077;49.704;9.908;2023-07-16T00:28:37;3.70;;;1.95;;
27670;SDS011;15077;49.704;9.908;2023-07-16T00:31:03;2.10;;;1.60;;
27670;SDS011;15077;49.704;9.908;2023-07-16T00:33:29;1.90;;;1.42;;
27670;SDS011;15077;49.704;9.908;2023-07-16T00:35:55;2.88;;;1.60;;
27670;SDS011;15077;49.704;9.908;2023-07-16T00:38:21;2.35;;;1.60;;
27670;SDS011;15077;49.704;9.908;2023-07-16T00:40:49;2.20;;;1.33;;
27670;SDS011;15077;49.704;9.908;2023-07-16T00:43:15;2.20;;;1.17;;
27670;SDS011;15077;49.704;9.908;2023-07-16T00:45:41;2.63;;;1.55;;
27670;SDS011;15077;49.704;9.908;2023-07-16T00:48:10;2.15;;;1.30;;
27670;SDS011;15077;49.704;9.908;2023-07-16T00:50:37;1.75;;;1.27;;
27670;SDS011;15077;49.704;9.908;2023-07-16T00:53:06;3.05;;;1.58;;
27670;SDS011;15077;49.704;9.908;2023-07-16T00:55:33;3.03;;;1.30;;
27670;SDS011;15077;49.704;9.908;2023-07-16T00:58:03;2.40;;;1.50;;
27670;SDS011;15077;49.704;9.908;2023-07-16T01:00:33;2.50;;;1.35;;
27670;SDS011;15077;49.704;9.908;2023-07-16T01:03:06;1.67;;;1.35;;
27670;SDS011;15077;49.704;9.908;2023-07-16T01:05:38;3.63;;;1.77;;
27670;SDS011;15077;49.704;9.908;2023-07-16T01:08:27;1.90;;;1.25;;
27670;SDS011;15077;49.704;9.908;2023-07-16T01:11:08;2.53;;;1.25;;
27670;SDS011;15077;49.704;9.908;2023-07-16T01:13:34;1.15;;;0.88;;
27670;SDS011;15077;49.704;9.908;2023-07-16T01:16:01;2.60;;;1.30;;
27670;SDS011;15077;49.704;9.908;2023-07-16T01:18:27;1.75;;;1.10;;
27670;SDS011;15077;49.704;9.908;2023-07-16T01:20:53;1.33;;;1.02;;
27670;SDS011;15077;49.704;9.908;2023-07-16T01:26:39;2.47;;;1.05;;
27670;SDS011;15077;49.704;9.908;2023-07-16T01:31:56;2.15;;;1.33;;
27670;SDS011;15077;49.704;9.908;2023-07-16T01:34:26;2.10;;;1.40;;
27670;SDS011;15077;49.704;9.908;2023-07-16T01:39:26;2.72;;;1.23;;
27670;SDS011;15077;49.704;9.908;2023-07-16T01:41:52;2.65;;;1.30;;
27670;SDS011;15077;49.704;9.908;2023-07-16T01:44:17;2.10;;;0.95;;
27670;SDS011;15077;49.704;9.908;2023-07-16T01:46:43;1.42;;;1.10;;
27670;SDS011;15077;49.704;9.908;2023-07-16T01:49:12;1.75;;;1.23;;
27670;SDS011;15077;49.704;9.908;2023-07-16T01:51:38;2.78;;;1.95;;
27670;SDS011;15077;49.704;9.908;2023-07-16T01:54:04;1.85;;;1.10;;
27670;SDS011;15077;49.704;9.908;2023-07-16T01:56:30;2.35;;;1.20;;
27670;SDS011;15077;49.704;9.908;2023-07-16T01:58:55;1.92;;;1.20;;
27670;SDS011;15077;49.704;9.908;2023-07-16T02:01:21;3.83;;;1.38;;
27670;SDS011;15077;49.704;9.908;2023-07-16T02:03:47;2.65;;;1.15;;
27670;SDS011;15077;49.704;9.908;2023-07-16T02:06:13;2.63;;;1.70;;
27670;SDS011;15077;49.704;9.908;2023-07-16T02:08:38;3.28;;;1.30;;
27670;SDS011;15077;49.704;9.908;2023-07-16T02:11:04;1.85;;;1.10;;
27670;SDS011;15077;49.704;9.908;2023-07-16T02:13:30;2.45;;;0.85;;
27670;SDS011;15077;49.704;9.908;2023-07-16T02:15:56;2.33;;;0.70;;
27670;SDS011;15077;49.704;9.908;2023-07-16T02:18:25;3.00;;;0.80;;
27670;SDS011;15077;49.704;9.908;2023-07-16T02:20:51;1.45;;;0.85;;
27670;SDS011;15077;49.704;9.908;2023-07-16T02:23:17;2.42;;;0.80;;
27670;SDS011;15077;49.704;9.908;2023-07-16T02:25:43;3.22;;;1.02;;
27670;SDS011;15077;49.704;9.908;2023-07-16T02:28:08;1.67;;;0.80;;
27670;SDS011;15077;49.704;9.908;2023-07-16T02:30:34;1.42;;;0.90;;
27670;SDS011;15077;49.704;9.908;2023-07-16T02:33:00;1.20;;;0.80;;
27670;SDS011;15077;49.704;9.908;2023-07-16T02:35:26;1.58;;;1.02;;
27670;SDS011;15077;49.704;9.908;2023-07-16T02:37:54;1.42;;;0.90;;
27670;SDS011;15077;49.704;9.908;2023-07-16T02:40:20;1.70;;;0.90;;
27670;SDS011;15077;49.704;9.908;2023-07-16T02:42:46;2.33;;;0.95;;
27670;SDS011;15077;49.704;9.908;2023-07-16T02:45:12;1.50;;;0.98;;
27670;SDS011;15077;49.704;9.908;2023-07-16T02:47:38;2.55;;;1.10;;
27670;SDS011;15077;49.704;9.908;2023-07-16T02:50:04;2.95;;;1.20;;
27670;SDS011;15077;49.704;9.908;2023-07-16T02:52:31;1.00;;;0.70;;
27670;SDS011;15077;49.704;9.908;2023-07-16T02:54:56;1.95;;;0.90;;
27670;SDS011;15077;49.704;9.908;2023-07-16T02:57:22;1.15;;;0.80;;
27670;SDS011;15077;49.704;9.908;2023-07-16T02:59:48;1.63;;;0.90;;
27670;SDS011;15077;49.704;9.908;2023-07-16T03:02:17;1.27;;;0.75;;
27670;SDS011;15077;49.704;9.908;2023-07-16T03:04:43;2.20;;;0.80;;
27670;SDS011;15077;49.704;9.908;2023-07-16T03:07:09;1.23;;;0.90;;
27670;SDS011;15077;49.704;9.908;2023-07-16T03:09:34;1.10;;;0.80;;
27670;SDS011;15077;49.704;9.908;2023-07-16T03:12:00;2.45;;;0.80;;
27670;SDS011;15077;49.704;9.908;2023-07-16T03:14:26;2.35;;;0.70;;
27670;SDS011;15077;49.704;9.908;2023-07-16T03:16:52;2.30;;;1.48;;
27670;SDS011;15077;49.704;9.908;2023-07-16T03:19:18;1.52;;;1.00;;
27670;SDS011;15077;49.704;9.908;2023-07-16T03:21:44;2.00;;;0.80;;
27670;SDS011;15077;49.704;9.908;2023-07-16T03:24:11;1.55;;;0.95;;
27670;SDS011;15077;49.704;9.908;2023-07-16T03:26:37;5.07;;;1.58;;
27670;SDS011;15077;49.704;9.908;2023-07-16T03:29:03;2.05;;;0.93;;
27670;SDS011;15077;49.704;9.908;2023-07-16T03:31:29;0.80;;;0.70;;
27670;SDS011;15077;49.704;9.908;2023-07-16T03:33:54;0.90;;;0.63;;
27670;SDS011;15077;49.704;9.908;2023-07-16T03:36:20;1.35;;;0.70;;
27670;SDS011;15077;49.704;9.908;2023-07-16T03:38:46;1.67;;;0.95;;
27670;SDS011;15077;49.704;9.908;2023-07-16T03:41:12;1.42;;;0.80;;
27670;SDS011;15077;49.704;9.908;2023-07-16T03:43:37;2.03;;;0.80;;
27670;SDS011;15077;49.704;9.908;2023-07-16T03:46:03;1.52;;;1.05;;
27670;SDS011;15077;49.704;9.908;2023-07-16T03:48:32;1.85;;;0.90;;
27670;SDS011;15077;49.704;9.908;2023-07-16T03:50:58;3.92;;;0.70;;
27670;SDS011;15077;49.704;9.908;2023-07-16T03:53:23;1.48;;;0.88;;
27670;SDS011;15077;49.704;9.908;2023-07-16T03:55:49;1.50;;;0.63;;
27670;SDS011;15077;49.704;9.908;2023-07-16T03:58:15;2.45;;;0.57;;
27670;SDS011;15077;49.704;9.908;2023-07-16T04:00:43;1.40;;;0.82;;
27670;SDS011;15077;49.704;9.908;2023-07-16T04:03:09;1.58;;;0.95;;
27670;SDS011;15077;49.704;9.908;2023-07-16T04:05:37;2.50;;;0.80;;
27670;SDS011;15077;49.704;9.908;2023-07-16T04:08:03;1.65;;;1.00;;
27670;SDS011;15077;49.704;9.908;2023-07-16T04:10:29;1.10;;;0.80;;
27670;SDS011;15077;49.704;9.908;2023-07-16T04:12:54;1.35;;;0.90;;
27670;SDS011;15077;49.704;9.908;2023-07-16T04:15:20;2.55;;;1.10;;
27670;SDS011;15077;49.704;9.908;2023-07-16T04:17:46;1.02;;;0.80;;
27670;SDS011;15077;49.704;9.908;2023-07-16T04:20:14;2.85;;;0.80;;
27670;SDS011;15077;49.704;9.908;2023-07-16T04:22:39;2.00;;;1.00;;
27670;SDS011;15077;49.704;9.908;2023-07-16T04:25:05;7.20;;;1.20;;
27670;SDS011;15077;49.704;9.908;2023-07-16T04:27:31;1.80;;;0.90;;
27670;SDS011;15077;49.704;9.908;2023-07-16T04:29:57;2.58;;;1.20;;
27670;SDS011;15077;49.704;9.908;2023-07-16T04:32:23;3.95;;;1.67;;
27670;SDS011;15077;49.704;9.908;2023-07-16T04:34:49;2.60;;;1.25;;
27670;SDS011;15077;49.704;9.908;2023-07-16T04:37:14;3.42;;;1.13;;
27670;SDS011;15077;49.704;9.908;2023-07-16T04:39:40;2.50;;;1.33;;
27670;SDS011;15077;49.704;9.908;2023-07-16T04:42:06;2.90;;;1.27;;
27670;SDS011;15077;49.704;9.908;2023-07-16T04:44:32;1.70;;;0.90;;
27670;SDS011;15077;49.704;9.908;2023-07-16T04:46:57;4.10;;;1.23;;
27670;SDS011;15077;49.704;9.908;2023-07-16T04:49:23;4.40;;;1.55;;
27670;SDS011;15077;49.704;9.908;2023-07-16T04:51:49;3.58;;;1.10;;
27670;SDS011;15077;49.704;9.908;2023-07-16T04:54:14;2.70;;;1.50;;
27670;SDS011;15077;49.704;9.908;2023-07-16T04:56:40;2.78;;;1.13;;
27670;SDS011;15077;49.704;9.908;2023-07-16T04:59:06;4.43;;;1.20;;
27670;SDS011;15077;49.704;9.908;2023-07-16T05:01:31;3.80;;;1.15;;
27670;SDS011;15077;49.704;9.908;2023-07-16T05:03:57;3.72;;;1.63;;
27670;SDS011;15077;49.704;9.908;2023-07-16T05:06:23;3.72;;;1.40;;
27670;SDS011;15077;49.704;9.908;2023-07-16T05:08:48;2.50;;;1.15;;
27670;SDS011;15077;49.704;9.908;2023-07-16T05:11:14;2.33;;;1.23;;
27670;SDS011;15077;49.704;9.908;2023-07-16T05:13:40;5.13;;;1.35;;
27670;SDS011;15077;49.704;9.908;2023-07-16T05:16:06;3.88;;;1.60;;
27670;SDS011;15077;49.704;9.908;2023-07-16T05:18:31;5.57;;;1.95;;
27670;SDS011;15077;49.704;9.908;2023-07-16T05:20:57;4.78;;;1.67;;
27670;SDS011;15077;49.704;9.908;2023-07-16T05:23:23;5.60;;;1.60;;
27670;SDS011;15077;49.704;9.908;2023-07-16T05:25:49;2.40;;;1.30;;
27670;SDS011;15077;49.704;9.908;2023-07-16T05:28:15;7.60;;;2.00;;
27670;SDS011;15077;49.704;9.908;2023-07-16T05:30:43;3.88;;;1.45;;
27670;SDS011;15077;49.704;9.908;2023-07-16T05:33:09;6.25;;;1.73;;
27670;SDS011;15077;49.704;9.908;2023-07-16T05:35:36;4.78;;;1.10;;
27670;SDS011;15077;49.704;9.908;2023-07-16T05:38:01;2.53;;;1.17;;
27670;SDS011;15077;49.704;9.908;2023-07-16T05:40:27;6.57;;;1.52;;
27670;SDS011;15077;49.704;9.908;2023-07-16T05:42:54;5.03;;;1.33;;
27670;SDS011;15077;49.704;9.908;2023-07-16T05:45:19;2.78;;;1.60;;
27670;SDS011;15077;49.704;9.908;2023-07-16T05:47:45;2.78;;;1.50;;
27670;SDS011;15077;49.704;9.908;2023-07-16T05:50:11;5.32;;;1.70;;
27670;SDS011;15077;49.704;9.908;2023-07-16T05:52:36;3.92;;;1.55;;
27670;SDS011;15077;49.704;9.908;2023-07-16T05:55:02;8.35;;;2.03;;
27670;SDS011;15077;49.704;9.908;2023-07-16T05:57:28;3.38;;;1.25;;
27670;SDS011;15077;49.704;9.908;2023-07-16T05:59:54;3.67;;;1.30;;
27670;SDS011;15077;49.704;9.908;2023-07-16T06:02:20;7.18;;;1.98;;
27670;SDS011;15077;49.704;9.908;2023-07-16T06:04:45;3.47;;;1.42;;
27670;SDS011;15077;49.704;9.908;2023-07-16T06:07:14;2.67;;;1.00;;
27670;SDS011;15077;49.704;9.908;2023-07-16T06:09:41;5.97;;;1.63;;
27670;SDS011;15077;49.704;9.908;2023-07-16T06:12:07;6.50;;;1.30;;
27670;SDS011;15077;49.704;9.908;2023-07-16T06:14:32;3.83;;;1.27;;
27670;SDS011;15077;49.704;9.908;2023-07-16T06:16:58;4.70;;;1.60;;
27670;SDS011;15077;49.704;9.908;2023-07-16T06:19:24;6.47;;;1.50;;
27670;SDS011;15077;49.704;9.908;2023-07-16T06:21:49;3.10;;;1.92;;
27670;SDS011;15077;49.704;9.908;2023-07-16T06:24:15;3.38;;;1.35;;
27670;SDS011;15077;49.704;9.908;2023-07-16T06:26:41;2.22;;;1.33;;
27670;SDS011;15077;49.704;9.908;2023-07-16T06:29:06;5.05;;;1.70;;
27670;SDS011;15077;49.704;9.908;2023-07-16T06:31:32;3.53;;;1.38;;
27670;SDS011;15077;49.704;9.908;2023-07-16T06:33:59;4.97;;;1.30;;
27670;SDS011;15077;49.704;9.908;2023-07-16T06:36:24;4.40;;;1.77;;
27670;SDS011;15077;49.704;9.908;2023-07-16T06:38:50;4.00;;;1.40;;
27670;SDS011;15077;49.704;9.908;2023-07-16T06:41:16;4.10;;;1.40;;
27670;SDS011;15077;49.704;9.908;2023-07-16T06:43:43;3.58;;;1.77;;
27670;SDS011;15077;49.704;9.908;2023-07-16T06:46:08;4.72;;;1.83;;
27670;SDS011;15077;49.704;9.908;2023-07-16T06:48:34;3.40;;;1.58;;
27670;SDS011;15077;49.704;9.908;2023-07-16T06:51:00;5.18;;;1.73;;
27670;SDS011;15077;49.704;9.908;2023-07-16T06:53:25;3.88;;;1.60;;
27670;SDS011;15077;49.704;9.908;2023-07-16T06:55:51;3.30;;;1.48;;
27670;SDS011;15077;49.704;9.908;2023-07-16T06:58:17;5.03;;;1.88;;
27670;SDS011;15077;49.704;9.908;2023-07-16T07:00:43;3.00;;;1.30;;
27670;SDS011;15077;49.704;9.908;2023-07-16T07:03:09;4.45;;;1.67;;
27670;SDS011;15077;49.704;9.908;2023-07-16T07:05:34;4.70;;;1.52;;
27670;SDS011;15077;49.704;9.908;2023-07-16T07:08:03;3.63;;;1.88;;
27670;SDS011;15077;49.704;9.908;2023-07-16T07:10:29;4.30;;;1.80;;
27670;SDS011;15077;49.704;9.908;2023-07-16T07:12:54;2.90;;;1.40;;
27670;SDS011;15077;49.704;9.908;2023-07-16T07:15:20;3.95;;;1.30;;
27670;SDS011;15077;49.704;9.908;2023-07-16T07:17:46;2.85;;;1.33;;
27670;SDS011;15077;49.704;9.908;2023-07-16T07:20:12;2.08;;;0.85;;
27670;SDS011;15077;49.704;9.908;2023-07-16T07:22:38;6.03;;;1.42;;
27670;SDS011;15077;49.704;9.908;2023-07-16T07:25:04;4.68;;;1.42;;
27670;SDS011;15077;49.704;9.908;2023-07-16T07:27:30;3.65;;;1.73;;
27670;SDS011;15077;49.704;9.908;2023-07-16T07:29:56;3.47;;;1.33;;
27670;SDS011;15077;49.704;9.908;2023-07-16T07:32:22;3.35;;;1.63;;
27670;SDS011;15077;49.704;9.908;2023-07-16T07:34:48;3.47;;;1.67;;
27670;SDS011;15077;49.704;9.908;2023-07-16T07:37:14;3.05;;;1.40;;
27670;SDS011;15077;49.704;9.908;2023-07-16T07:39:39;3.75;;;1.50;;
27670;SDS011;15077;49.704;9.908;2023-07-16T07:42:06;4.70;;;1.67;;
27670;SDS011;15077;49.704;9.908;2023-07-16T07:44:32;2.90;;;1.35;;
27670;SDS011;15077;49.704;9.908;2023-07-16T07:46:58;3.00;;;1.15;;
27670;SDS011;15077;49.704;9.908;2023-07-16T07:49:23;3.47;;;1.48;;
27670;SDS011;15077;49.704;9.908;2023-07-16T07:51:49;3.72;;;1.13;;
27670;SDS011;15077;49.704;9.908;2023-07-16T07:54:15;3.45;;;1.60;;
27670;SDS011;15077;49.704;9.908;2023-07-16T07:56:41;6.80;;;1.75;;
27670;SDS011;15077;49.704;9.908;2023-07-16T07:59:07;2.83;;;1.23;;
27670;SDS011;15077;49.704;9.908;2023-07-16T08:01:33;3.33;;;1.60;;
27670;SDS011;15077;49.704;9.908;2023-07-16T08:03:59;4.32;;;1.42;;
27670;SDS011;15077;49.704;9.908;2023-07-16T08:06:25;4.15;;;1.67;;
27670;SDS011;15077;49.704;9.908;2023-07-16T08:08:51;4.28;;;1.83;;
27670;SDS011;15077;49.704;9.908;2023-07-16T08:11:17;3.25;;;1.42;;
27670;SDS011;15077;49.704;9.908;2023-07-16T08:13:42;7.80;;;2.22;;
27670;SDS011;15077;49.704;9.908;2023-07-16T08:16:08;2.85;;;1.63;;
27670;SDS011;15077;49.704;9.908;2023-07-16T08:18:34;4.32;;;1.65;;
27670;SDS011;15077;49.704;9.908;2023-07-16T08:21:00;3.83;;;1.88;;
27670;SDS011;15077;49.704;9.908;2023-07-16T08:23:26;3.72;;;1.42;;
27670;SDS011;15077;49.704;9.908;2023-07-16T08:25:52;2.55;;;1.23;;
27670;SDS011;15077;49.704;9.908;2023-07-16T08:28:17;5.18;;;1.70;;
27670;SDS011;15077;49.704;9.908;2023-07-16T08:30:46;4.97;;;1.40;;
27670;SDS011;15077;49.704;9.908;2023-07-16T08:33:13;4.03;;;1.75;;
27670;SDS011;15077;49.704;9.908;2023-07-16T08:35:39;4.47;;;2.20;;
27670;SDS011;15077;49.704;9.908;2023-07-16T08:38:06;3.67;;;1.83;;
27670;SDS011;15077;49.704;9.908;2023-07-16T08:40:37;4.53;;;1.60;;
27670;SDS011;15077;49.704;9.908;2023-07-16T08:43:05;3.90;;;1.30;;
27670;SDS011;15077;49.704;9.908;2023-07-16T08:45:38;5.88;;;1.80;;
27670;SDS011;15077;49.704;9.908;2023-07-16T08:48:06;3.03;;;1.45;;
27670;SDS011;15077;49.704;9.908;2023-07-16T08:50:33;4.78;;;1.50;;
27670;SDS011;15077;49.704;9.908;2023-07-16T08:53:01;4.25;;;1.40;;
27670;SDS011;15077;49.704;9.908;2023-07-16T08:55:32;5.53;;;1.58;;
27670;SDS011;15077;49.704;9.908;2023-07-16T08:58:03;2.60;;;1.15;;
27670;SDS011;15077;49.704;9.908;2023-07-16T09:00:30;3.45;;;1.50;;
27670;SDS011;15077;49.704;9.908;2023-07-16T09:02:57;3.83;;;1.15;;
27670;SDS011;15077;49.704;9.908;2023-07-16T09:05:22;3.08;;;1.25;;
27670;SDS011;15077;49.704;9.908;2023-07-16T09:07:49;4.68;;;1.83;;
27670;SDS011;15077;49.704;9.908;2023-07-16T09:10:15;3.97;;;1.67;;
27670;SDS011;15077;49.704;9.908;2023-07-16T09:12:42;3.20;;;1.70;;
27670;SDS011;15077;49.704;9.908;2023-07-16T09:15:09;4.55;;;1.95;;
27670;SDS011;15077;49.704;9.908;2023-07-16T09:17:36;4.63;;;1.38;;
27670;SDS011;15077;49.704;9.908;2023-07-16T09:20:03;4.38;;;1.77;;
27670;SDS011;15077;49.704;9.908;2023-07-16T09:22:33;3.35;;;1.30;;
27670;SDS011;15077;49.704;9.908;2023-07-16T09:25:00;3.88;;;1.40;;
27670;SDS011;15077;49.704;9.908;2023-07-16T09:27:30;5.55;;;1.40;;
27670;SDS011;15077;49.704;9.908;2023-07-16T09:29:56;6.43;;;1.58;;
27670;SDS011;15077;49.704;9.908;2023-07-16T09:32:32;3.85;;;1.05;;
27670;SDS011;15077;49.704;9.908;2023-07-16T09:35:12;3.80;;;1.65;;
27670;SDS011;15077;49.704;9.908;2023-07-16T09:37:42;4.53;;;1.17;;
27670;SDS011;15077;49.704;9.908;2023-07-16T09:40:09;3.15;;;1.45;;
27670;SDS011;15077;49.704;9.908;2023-07-16T09:42:37;6.32;;;1.58;;
27670;SDS011;15077;49.704;9.908;2023-07-16T09:45:08;3.28;;;1.48;;
27670;SDS011;15077;49.704;9.908;2023-07-16T09:47:43;3.20;;;1.17;;
27670;SDS011;15077;49.704;9.908;2023-07-16T09:50:10;2.53;;;1.77;;
27670;SDS011;15077;49.704;9.908;2023-07-16T09:52:36;5.22;;;2.35;;
27670;SDS011;15077;49.704;9.908;2023-07-16T09:55:05;4.93;;;1.52;;
27670;SDS011;15077;49.704;9.908;2023-07-16T09:57:35;4.45;;;2.03;;
27670;SDS011;15077;49.704;9.908;2023-07-16T10:00:10;3.03;;;1.45;;
27670;SDS011;15077;49.704;9.908;2023-07-16T10:02:39;3.83;;;1.60;;
27670;SDS011;15077;49.704;9.908;2023-07-16T10:05:15;3.70;;;1.83;;
27670;SDS011;15077;49.704;9.908;2023-07-16T10:07:54;3.38;;;1.92;;
27670;SDS011;15077;49.704;9.908;2023-07-16T10:10:26;4.22;;;1.98;;
27670;SDS011;15077;49.704;9.908;2023-07-16T10:13:10;4.38;;;1.73;;
27670;SDS011;15077;49.704;9.908;2023-07-16T10:15:38;5.63;;;1.52;;
27670;SDS011;15077;49.704;9.908;2023-07-16T10:18:28;2.88;;;1.70;;
27670;SDS011;15077;49.704;9.908;2023-07-16T10:21:05;4.45;;;1.70;;
27670;SDS011;15077;49.704;9.908;2023-07-16T10:23:43;5.10;;;2.00;;
27670;SDS011;15077;49.704;9.908;2023-07-16T10:26:10;4.97;;;2.47;;
27670;SDS011;15077;49.704;9.908;2023-07-16T10:28:38;3.90;;;2.15;;
27670;SDS011;15077;49.704;9.908;2023-07-16T10:31:04;6.88;;;1.80;;
27670;SDS011;15077;49.704;9.908;2023-07-16T10:33:33;2.88;;;1.85;;
27670;SDS011;15077;49.704;9.908;2023-07-16T10:35:59;3.33;;;1.70;;
27670;SDS011;15077;49.704;9.908;2023-07-16T10:38:25;3.42;;;1.77;;
27670;SDS011;15077;49.704;9.908;2023-07-16T10:40:51;4.55;;;1.35;;
27670;SDS011;15077;49.704;9.908;2023-07-16T10:43:17;3.38;;;1.55;;
27670;SDS011;15077;49.704;9.908;2023-07-16T10:45:43;3.78;;;1.67;;
27670;SDS011;15077;49.704;9.908;2023-07-16T10:48:12;3.63;;;1.75;;
27670;SDS011;15077;49.704;9.908;2023-07-16T10:50:37;3.63;;;1.98;;
27670;SDS011;15077;49.704;9.908;2023-07-16T10:53:03;6.70;;;1.65;;
27670;SDS011;15077;49.704;9.908;2023-07-16T10:55:29;4.75;;;1.83;;
27670;SDS011;15077;49.704;9.908;2023-07-16T10:57:56;4.70;;;1.80;;
27670;SDS011;15077;49.704;9.908;2023-07-16T11:00:22;4.35;;;1.60;;
27670;SDS011;15077;49.704;9.908;2023-07-16T11:02:52;2.75;;;1.45;;
27670;SDS011;15077;49.704;9.908;2023-07-16T11:05:18;4.82;;;1.55;;
27670;SDS011;15077;49.704;9.908;2023-07-16T11:07:44;3.90;;;1.95;;
27670;SDS011;15077;49.704;9.908;2023-07-16T11:10:17;3.45;;;1.70;;
27670;SDS011;15077;49.704;9.908;2023-07-16T11:12:43;2.13;;;1.25;;
27670;SDS011;15077;49.704;9.908;2023-07-16T11:15:10;2.88;;;1.45;;
27670;SDS011;15077;49.704;9.908;2023-07-16T11:17:39;3.42;;;2.20;;
27670;SDS011;15077;49.704;9.908;2023-07-16T11:20:08;2.15;;;1.52;;
27670;SDS011;15077;49.704;9.908;2023-07-16T11:22:36;5.10;;;2.08;;
27670;SDS011;15077;49.704;9.908;2023-07-16T11:25:03;4.22;;;1.83;;
27670;SDS011;15077;49.704;9.908;2023-07-16T11:27:36;4.78;;;2.35;;
27670;SDS011;15077;49.704;9.908;2023-07-16T11:30:07;3.45;;;1.90;;
27670;SDS011;15077;49.704;9.908;2023-07-16T11:32:35;3.60;;;1.92;;
27670;SDS011;15077;49.704;9.908;2023-07-16T11:35:15;3.13;;;2.08;;
27670;SDS011;15077;49.704;9.908;2023-07-16T11:37:43;2.97;;;1.77;;
27670;SDS011;15077;49.704;9.908;2023-07-16T11:40:11;2.97;;;1.63;;
27670;SDS011;15077;49.704;9.908;2023-07-16T11:42:42;3.83;;;1.83;;
27670;SDS011;15077;49.704;9.908;2023-07-16T11:45:14;4.25;;;1.83;;
27670;SDS011;15077;49.704;9.908;2023-07-16T11:47:53;3.78;;;1.80;;
27670;SDS011;15077;49.704;9.908;2023-07-16T11:50:19;4.20;;;1.67;;
27670;SDS011;15077;49.704;9.908;2023-07-16T11:52:54;2.95;;;1.60;;
27670;SDS011;15077;49.704;9.908;2023-07-16T11:55:24;2.05;;;1.33;;
27670;SDS011;15077;49.704;9.908;2023-07-16T11:57:50;5.97;;;2.22;;
27670;SDS011;15077;49.704;9.908;2023-07-16T12:00:16;4.05;;;1.90;;
27670;SDS011;15077;49.704;9.908;2023-07-16T12:02:43;3.60;;;1.40;;
27670;SDS011;15077;49.704;9.908;2023-07-16T12:05:16;2.95;;;1.40;;
27670;SDS011;15077;49.704;9.908;2023-07-16T12:07:49;2.08;;;1.40;;
27670;SDS011;15077;49.704;9.908;2023-07-16T12:10:14;3.58;;;1.83;;
27670;SDS011;15077;49.704;9.908;2023-07-16T12:12:40;3.80;;;1.50;;
27670;SDS011;15077;49.704;9.908;2023-07-16T12:15:06;4.38;;;2.05;;
27670;SDS011;15077;49.704;9.908;2023-07-16T12:17:33;4.78;;;2.00;;
27670;SDS011;15077;49.704;9.908;2023-07-16T12:19:59;3.80;;;1.60;;
27670;SDS011;15077;49.704;9.908;2023-07-16T12:22:28;3.85;;;2.53;;
27670;SDS011;15077;49.704;9.908;2023-07-16T12:24:54;2.72;;;1.65;;
27670;SDS011;15077;49.704;9.908;2023-07-16T12:27:20;4.22;;;1.65;;
27670;SDS011;15077;49.704;9.908;2023-07-16T12:29:46;3.75;;;1.67;;
27670;SDS011;15077;49.704;9.908;2023-07-16T12:32:12;3.58;;;1.75;;
27670;SDS011;15077;49.704;9.908;2023-07-16T12:34:39;3.85;;;1.73;;
27670;SDS011;15077;49.704;9.908;2023-07-16T12:37:05;3.53;;;1.58;;
27670;SDS011;15077;49.704;9.908;2023-07-16T12:39:32;3.13;;;1.92;;
27670;SDS011;15077;49.704;9.908;2023-07-16T12:41:58;4.30;;;1.58;;
27670;SDS011;15077;49.704;9.908;2023-07-16T12:44:23;3.17;;;1.77;;
27670;SDS011;15077;49.704;9.908;2023-07-16T12:46:49;4.03;;;1.75;;
27670;SDS011;15077;49.704;9.908;2023-07-16T12:49:15;3.83;;;2.15;;
27670;SDS011;15077;49.704;9.908;2023-07-16T12:51:41;3.38;;;1.58;;
27670;SDS011;15077;49.704;9.908;2023-07-16T12:54:06;3.15;;;1.70;;
27670;SDS011;15077;49.704;9.908;2023-07-16T12:56:32;4.75;;;1.63;;
27670;SDS011;15077;49.704;9.908;2023-07-16T12:58:58;3.30;;;1.77;;
27670;SDS011;15077;49.704;9.908;2023-07-16T13:01:24;3.05;;;1.58;;
27670;SDS011;15077;49.704;9.908;2023-07-16T13:03:49;2.67;;;1.50;;
27670;SDS011;15077;49.704;9.908;2023-07-16T13:06:15;3.38;;;1.63;;
27670;SDS011;15077;49.704;9.908;2023-07-16T13:08:41;2.42;;;1.35;;
27670;SDS011;15077;49.704;9.908;2023-07-16T13:11:07;2.70;;;1.33;;
27670;SDS011;15077;49.704;9.908;2023-07-16T13:13:32;4.60;;;1.90;;
27670;SDS011;15077;49.704;9.908;2023-07-16T13:15:58;2.58;;;1.45;;
27670;SDS011;15077;49.704;9.908;2023-07-16T13:18:24;2.55;;;1.23;;
27670;SDS011;15077;49.704;9.908;2023-07-16T13:20:49;2.05;;;1.40;;
27670;SDS011;15077;49.704;9.908;2023-07-16T13:23:15;4.07;;;2.15;;
27670;SDS011;15077;49.704;9.908;2023-07-16T13:25:41;3.80;;;1.50;;
27670;SDS011;15077;49.704;9.908;2023-07-16T13:28:07;3.20;;;1.95;;
27670;SDS011;15077;49.704;9.908;2023-07-16T13:30:33;4.63;;;1.80;;
27670;SDS011;15077;49.704;9.908;2023-07-16T13:32:59;3.03;;;1.63;;
27670;SDS011;15077;49.704;9.908;2023-07-16T13:35:26;2.90;;;1.50;;
27670;SDS011;15077;49.704;9.908;2023-07-16T13:37:52;2.45;;;1.52;;
27670;SDS011;15077;49.704;9.908;2023-07-16T13:40:18;5.47;;;1.55;;
27670;SDS011;15077;49.704;9.908;2023-07-16T13:42:47;2.47;;;1.38;;
27670;SDS011;15077;49.704;9.908;2023-07-16T13:45:13;3.45;;;1.67;;
27670;SDS011;15077;49.704;9.908;2023-07-16T13:47:39;6.78;;;1.92;;
27670;SDS011;15077;49.704;9.908;2023-07-16T13:50:05;3.92;;;1.65;;
27670;SDS011;15077;49.704;9.908;2023-07-16T13:52:31;2.05;;;1.30;;
27670;SDS011;15077;49.704;9.908;2023-07-16T13:54:57;2.95;;;1.55;;
27670;SDS011;15077;49.704;9.908;2023-07-16T13:57:23;4.03;;;1.73;;
27670;SDS011;15077;49.704;9.908;2023-07-16T13:59:49;3.17;;;1.98;;
27670;SDS011;15077;49.704;9.908;2023-07-16T14:02:15;3.78;;;1.40;;
27670;SDS011;15077;49.704;9.908;2023-07-16T14:04:40;2.70;;;1.63;;
27670;SDS011;15077;49.704;9.908;2023-07-16T14:07:06;2.90;;;1.50;;
27670;SDS011;15077;49.704;9.908;2023-07-16T14:09:32;4.70;;;1.95;;
27670;SDS011;15077;49.704;9.908;2023-07-16T14:11:57;2.38;;;1.35;;
27670;SDS011;15077;49.704;9.908;2023-07-16T14:14:23;2.60;;;1.20;;
27670;SDS011;15077;49.704;9.908;2023-07-16T14:16:49;2.53;;;1.42;;
27670;SDS011;15077;49.704;9.908;2023-07-16T14:19:15;2.95;;;1.30;;
27670;SDS011;15077;49.704;9.908;2023-07-16T14:21:41;2.55;;;1.60;;
27670;SDS011;15077;49.704;9.908;2023-07-16T14:24:07;3.15;;;1.80;;
27670;SDS011;15077;49.704;9.908;2023-07-16T14:26:34;3.72;;;2.05;;
27670;SDS011;15077;49.704;9.908;2023-07-16T14:28:59;3.35;;;1.50;;
27670;SDS011;15077;49.704;9.908;2023-07-16T14:31:25;6.90;;;2.05;;
27670;SDS011;15077;49.704;9.908;2023-07-16T14:33:51;4.07;;;2.10;;
27670;SDS011;15077;49.704;9.908;2023-07-16T14:36:17;2.97;;;1.50;;
27670;SDS011;15077;49.704;9.908;2023-07-16T14:38:43;3.88;;;1.75;;
27670;SDS011;15077;49.704;9.908;2023-07-16T14:41:08;2.55;;;1.30;;
27670;SDS011;15077;49.704;9.908;2023-07-16T14:43:35;2.90;;;1.60;;
27670;SDS011;15077;49.704;9.908;2023-07-16T14:46:01;4.18;;;1.92;;
27670;SDS011;15077;49.704;9.908;2023-07-16T14:48:28;2.85;;;1.75;;
27670;SDS011;15077;49.704;9.908;2023-07-16T14:50:54;3.58;;;1.60;;
27670;SDS011;15077;49.704;9.908;2023-07-16T14:53:20;6.13;;;2.13;;
27670;SDS011;15077;49.704;9.908;2023-07-16T14:55:46;3.20;;;1.63;;